createdAt,value
2017-06-15T00:01:29.279Z,12.98
2017-06-15T00:03:57.590Z,13.04
2017-06-15T00:06:25.930Z,13.24
2017-06-15T00:08:54.244Z,15.84
2017-06-15T00:11:22.586Z,13.44
2017-06-15T00:13:51.210Z,14.80
2017-06-15T00:16:19.603Z,14.00
2017-06-15T00:18:47.915Z,13.20
2017-06-15T00:21:16.256Z,13.22
2017-06-15T00:23:44.571Z,12.86
2017-06-15T00:26:12.931Z,13.86
2017-06-15T00:28:41.245Z,12.94
2017-06-15T00:31:09.580Z,14.76
2017-06-15T00:33:37.911Z,13.12
2017-06-15T00:36:06.894Z,14.50
2017-06-15T00:38:35.220Z,13.18
2017-06-15T00:41:03.603Z,12.98
2017-06-15T00:43:31.928Z,13.98
2017-06-15T00:46:00.300Z,14.82
2017-06-15T00:48:28.616Z,14.26
2017-06-15T00:50:56.227Z,13.26
2017-06-15T00:53:24.550Z,13.60
2017-06-15T00:55:52.895Z,13.36
2017-06-15T00:58:21.210Z,13.12
2017-06-15T01:00:49.548Z,13.54
2017-06-15T01:03:17.863Z,15.00
2017-06-15T01:05:46.204Z,14.38
2017-06-15T01:08:14.722Z,13.84
2017-06-15T01:10:43.080Z,13.78
2017-06-15T01:13:11.389Z,13.46
2017-06-15T01:15:39.739Z,13.46
2017-06-15T01:18:08.076Z,13.78
2017-06-15T01:20:36.390Z,13.90
2017-06-15T01:23:04.727Z,13.14
2017-06-15T01:25:33.036Z,12.40
2017-06-15T01:28:01.375Z,12.20
2017-06-15T01:30:29.697Z,13.92
2017-06-15T01:32:58.038Z,15.56
2017-06-15T01:35:26.352Z,13.90
2017-06-15T01:37:54.699Z,13.50
2017-06-15T01:40:23.020Z,13.34
2017-06-15T01:42:51.395Z,13.48
2017-06-15T01:45:19.712Z,14.00
2017-06-15T01:47:48.047Z,19.24
2017-06-15T01:50:16.359Z,14.40
2017-06-15T01:52:44.700Z,13.48
2017-06-15T01:55:13.012Z,14.10
2017-06-15T01:57:41.349Z,13.70
2017-06-15T02:00:09.664Z,13.16
2017-06-15T02:02:38.004Z,12.96
2017-06-15T02:05:06.322Z,13.52
2017-06-15T02:07:34.684Z,13.68
2017-06-15T02:10:03.004Z,14.72
2017-06-15T02:12:31.365Z,13.50
2017-06-15T02:14:59.692Z,13.62
2017-06-15T02:17:28.024Z,13.64
2017-06-15T02:19:56.359Z,14.14
2017-06-15T02:22:24.702Z,13.16
2017-06-15T02:24:53.018Z,13.64
2017-06-15T02:27:20.588Z,13.56
2017-06-15T02:29:48.904Z,15.58
2017-06-15T02:32:17.248Z,14.40
2017-06-15T02:34:45.572Z,15.98
2017-06-15T02:37:13.930Z,15.88
2017-06-15T02:39:42.247Z,13.12
2017-06-15T02:42:10.585Z,13.58
2017-06-15T02:44:38.896Z,13.34
2017-06-15T02:47:07.235Z,14.66
2017-06-15T02:49:35.572Z,15.40
2017-06-15T02:52:03.912Z,13.62
2017-06-15T02:54:32.223Z,13.68
2017-06-15T02:57:00.566Z,14.82
2017-06-15T02:59:28.883Z,13.96
2017-06-15T03:01:57.222Z,15.30
2017-06-15T03:04:25.531Z,13.58
2017-06-15T03:06:53.871Z,14.92
2017-06-15T03:09:22.210Z,15.82
2017-06-15T03:11:50.577Z,16.52
2017-06-15T03:14:18.904Z,15.10
2017-06-15T03:16:47.221Z,15.30
2017-06-15T03:19:15.580Z,19.10
2017-06-15T03:21:43.895Z,14.88
2017-06-15T03:24:12.236Z,18.14
2017-06-15T03:26:39.789Z,13.30
2017-06-15T03:29:08.132Z,13.70
2017-06-15T03:31:36.447Z,14.14
2017-06-15T03:34:04.787Z,13.14
2017-06-15T03:36:33.103Z,14.80
2017-06-15T03:39:01.442Z,14.28
2017-06-15T03:41:29.763Z,13.46
2017-06-15T03:43:58.589Z,15.14
2017-06-15T03:46:26.919Z,13.68
2017-06-15T03:48:54.498Z,14.76
2017-06-15T03:51:22.815Z,14.28
2017-06-15T03:53:51.203Z,17.42
2017-06-15T03:56:19.737Z,15.70
2017-06-15T03:58:48.125Z,13.50
2017-06-15T04:01:15.680Z,13.08
2017-06-15T04:03:44.020Z,14.18
2017-06-15T04:06:12.335Z,13.70
2017-06-15T04:08:40.672Z,12.66
2017-06-15T04:11:08.233Z,13.34
2017-06-15T04:13:36.581Z,13.00
2017-06-15T04:16:04.908Z,13.36
2017-06-15T04:18:33.254Z,12.60
2017-06-15T04:21:01.570Z,12.44
2017-06-15T04:23:29.909Z,12.72
2017-06-15T04:25:58.222Z,12.90
2017-06-15T04:28:26.558Z,12.78
2017-06-15T04:30:54.872Z,12.28
2017-06-15T04:33:23.207Z,12.06
2017-06-15T04:35:51.523Z,12.18
2017-06-15T04:38:19.859Z,11.58
2017-06-15T04:40:48.188Z,11.88
2017-06-15T04:43:16.595Z,11.30
2017-06-15T04:45:45.008Z,11.42
2017-06-15T04:48:13.344Z,11.22
2017-06-15T04:50:40.900Z,11.26
2017-06-15T04:53:09.240Z,10.88
2017-06-15T04:55:37.548Z,10.62
2017-06-15T04:58:05.882Z,11.04
2017-06-15T05:00:34.188Z,10.76
2017-06-15T05:03:02.523Z,10.68
2017-06-15T05:05:30.836Z,11.30
2017-06-15T05:07:58.420Z,10.38
2017-06-15T05:10:26.730Z,10.78
2017-06-15T05:12:55.059Z,11.32
2017-06-15T05:15:23.403Z,12.90
2017-06-15T05:17:51.716Z,10.10
2017-06-15T05:20:20.071Z,11.38
2017-06-15T05:22:48.384Z,12.18
2017-06-15T05:25:16.720Z,11.00
2017-06-15T05:27:44.266Z,11.38
2017-06-15T05:30:12.610Z,11.38
2017-06-15T05:32:40.919Z,12.18
2017-06-15T05:35:09.274Z,11.84
2017-06-15T05:37:37.639Z,11.82
2017-06-15T05:40:05.976Z,11.10
2017-06-15T05:42:34.286Z,11.44
2017-06-15T05:45:02.619Z,11.90
2017-06-15T05:47:30.978Z,12.40
2017-06-15T05:49:59.314Z,11.22
2017-06-15T05:52:27.629Z,12.84
2017-06-15T05:54:55.963Z,11.08
2017-06-15T05:57:24.271Z,11.22
2017-06-15T05:59:52.625Z,11.10
2017-06-15T06:02:20.944Z,11.86
2017-06-15T06:04:49.285Z,14.00
2017-06-15T06:07:17.597Z,11.48
2017-06-15T06:09:45.939Z,12.08
2017-06-15T06:12:14.263Z,11.36
2017-06-15T06:14:42.607Z,12.28
2017-06-15T06:17:10.925Z,13.16
2017-06-15T06:19:39.261Z,13.30
2017-06-15T06:22:07.576Z,13.10
2017-06-15T06:24:35.913Z,12.62
2017-06-15T06:27:04.226Z,12.52
2017-06-15T06:29:32.565Z,11.48
2017-06-15T06:32:00.882Z,11.94
2017-06-15T06:34:29.213Z,10.54
2017-06-15T06:36:57.523Z,9.72
2017-06-15T06:39:25.851Z,8.82
2017-06-15T06:41:54.161Z,9.40
2017-06-15T06:44:22.495Z,10.14
2017-06-15T06:46:50.801Z,8.48
2017-06-15T06:49:19.138Z,7.90
2017-06-15T06:51:47.447Z,8.52
2017-06-15T06:54:15.783Z,9.44
2017-06-15T06:56:44.086Z,9.06
2017-06-15T06:59:12.416Z,8.66
2017-06-15T07:01:40.719Z,8.62
2017-06-15T07:04:09.050Z,8.94
2017-06-15T07:06:37.357Z,8.88
2017-06-15T07:09:05.660Z,8.98
2017-06-15T07:11:33.996Z,8.74
2017-06-15T07:14:02.317Z,9.12
2017-06-15T07:16:30.648Z,8.58
2017-06-15T07:18:58.961Z,8.74
2017-06-15T07:21:27.305Z,8.64
2017-06-15T07:23:55.628Z,8.30
2017-06-15T07:26:23.956Z,8.78
2017-06-15T07:28:52.262Z,8.04
2017-06-15T07:31:20.595Z,8.98
2017-06-15T07:33:48.907Z,8.70
2017-06-15T07:36:17.231Z,8.58
2017-06-15T07:38:45.577Z,8.30
2017-06-15T07:41:13.931Z,7.56
2017-06-15T07:43:42.235Z,9.70
2017-06-15T07:46:10.569Z,8.48
2017-06-15T07:48:38.896Z,9.06
2017-06-15T07:51:07.224Z,8.36
2017-06-15T07:53:35.535Z,9.26
2017-06-15T07:56:03.874Z,10.72
2017-06-15T07:58:32.179Z,8.52
2017-06-15T08:01:00.508Z,8.70
2017-06-15T08:03:28.810Z,9.24
2017-06-15T08:05:57.162Z,8.82
2017-06-15T08:08:25.471Z,8.76
2017-06-15T08:10:53.816Z,8.60
2017-06-15T08:13:22.123Z,7.68
2017-06-15T08:15:50.451Z,9.18
2017-06-15T08:18:18.760Z,9.04
2017-06-15T08:20:47.089Z,7.98
2017-06-15T08:23:15.396Z,8.68
2017-06-15T08:25:43.727Z,7.92
2017-06-15T08:28:12.037Z,8.92
2017-06-15T08:30:40.367Z,9.06
2017-06-15T08:33:08.686Z,8.84
2017-06-15T08:35:37.016Z,9.60
2017-06-15T08:38:05.343Z,9.38
2017-06-15T08:40:33.678Z,8.12
2017-06-15T08:43:01.993Z,8.90
2017-06-15T08:45:30.321Z,8.20
2017-06-15T08:47:58.646Z,7.82
2017-06-15T08:50:26.984Z,8.18
2017-06-15T08:52:55.337Z,7.46
2017-06-15T08:55:23.668Z,11.62
2017-06-15T08:57:51.980Z,8.32
2017-06-15T09:00:20.320Z,7.00
2017-06-15T09:02:48.703Z,7.58
2017-06-15T09:05:17.051Z,7.98
2017-06-15T09:07:45.372Z,8.32
2017-06-15T09:10:13.680Z,8.20
2017-06-15T09:12:42.048Z,7.96
2017-06-15T09:15:10.424Z,8.22
2017-06-15T09:17:38.891Z,7.92
2017-06-15T09:20:07.319Z,7.94
2017-06-15T09:22:35.663Z,7.88
2017-06-15T09:25:03.972Z,7.90
2017-06-15T09:27:32.320Z,9.06
2017-06-15T09:30:00.633Z,7.96
2017-06-15T09:32:28.971Z,8.06
2017-06-15T09:34:57.276Z,8.08
2017-06-15T09:37:25.635Z,7.64
2017-06-15T09:39:53.948Z,7.96
2017-06-15T09:42:22.282Z,8.34
2017-06-15T09:44:50.591Z,7.60
2017-06-15T09:47:18.922Z,8.04
2017-06-15T09:49:47.236Z,7.60
2017-06-15T09:52:15.563Z,7.34
2017-06-15T09:54:43.875Z,7.84
2017-06-15T09:57:12.371Z,9.80
2017-06-15T09:59:40.744Z,7.64
2017-06-15T10:02:09.100Z,7.66
2017-06-15T10:04:37.415Z,7.26
2017-06-15T10:07:05.747Z,7.86
2017-06-15T10:09:34.079Z,9.08
2017-06-15T10:12:02.432Z,6.92
2017-06-15T10:14:30.744Z,7.40
2017-06-15T10:16:59.079Z,7.86
2017-06-15T10:19:27.396Z,7.02
2017-06-15T10:21:55.732Z,7.88
2017-06-15T10:24:24.039Z,7.50
2017-06-15T10:26:52.411Z,7.40
2017-06-15T10:29:20.720Z,7.06
2017-06-15T10:31:49.056Z,7.10
2017-06-15T10:34:17.367Z,7.86
2017-06-15T10:36:45.699Z,7.64
2017-06-15T10:39:13.246Z,6.34
2017-06-15T10:41:41.590Z,8.16
2017-06-15T10:44:09.895Z,8.06
2017-06-15T10:46:38.228Z,7.66
2017-06-15T10:49:06.536Z,7.74
2017-06-15T10:51:34.867Z,7.98
2017-06-15T10:54:03.172Z,7.68
2017-06-15T10:56:31.509Z,7.90
2017-06-15T10:58:59.816Z,8.12
2017-06-15T11:01:28.147Z,8.06
2017-06-15T11:03:56.451Z,9.04
2017-06-15T11:06:24.788Z,7.76
2017-06-15T11:08:53.104Z,8.88
2017-06-15T11:11:21.452Z,7.98
2017-06-15T11:13:49.783Z,8.20
2017-06-15T11:16:18.776Z,7.44
2017-06-15T11:18:47.104Z,7.98
2017-06-15T11:21:15.736Z,7.10
2017-06-15T11:23:44.071Z,7.48
2017-06-15T11:26:12.383Z,7.66
2017-06-15T11:28:40.752Z,9.24
2017-06-15T11:31:09.056Z,7.48
2017-06-15T11:33:37.389Z,7.56
2017-06-15T11:36:05.699Z,7.78
2017-06-15T11:38:34.028Z,8.70
2017-06-15T11:41:02.335Z,7.30
2017-06-15T11:43:30.667Z,7.74
2017-06-15T11:45:58.988Z,6.38
2017-06-15T11:48:27.323Z,6.70
2017-06-15T11:50:55.645Z,8.50
2017-06-15T11:53:23.972Z,7.24
2017-06-15T11:55:52.295Z,6.84
2017-06-15T11:58:20.637Z,6.82
2017-06-15T12:00:48.967Z,8.52
2017-06-15T12:03:17.334Z,7.20
2017-06-15T12:05:45.657Z,10.30
2017-06-15T12:08:14.009Z,9.72
2017-06-15T12:10:42.325Z,12.40
2017-06-15T12:13:11.139Z,8.42
2017-06-15T12:15:39.455Z,11.56
2017-06-15T12:18:07.784Z,7.54
2017-06-15T12:20:36.092Z,10.58
2017-06-15T12:23:04.826Z,6.74
2017-06-15T12:25:33.193Z,6.76
2017-06-15T12:28:01.569Z,9.22
2017-06-15T12:30:30.224Z,7.28
2017-06-15T12:32:58.568Z,7.80
2017-06-15T12:35:26.878Z,7.40
2017-06-15T12:37:55.212Z,8.98
2017-06-15T12:40:23.527Z,6.54
2017-06-15T12:42:51.861Z,7.12
2017-06-15T12:45:20.172Z,7.06
2017-06-15T12:47:48.507Z,6.66
2017-06-15T12:50:16.052Z,7.22
2017-06-15T12:52:44.379Z,7.82
2017-06-15T12:55:12.712Z,7.62
2017-06-15T12:57:41.015Z,7.34
2017-06-15T13:00:09.349Z,7.68
2017-06-15T13:02:37.662Z,7.56
2017-06-15T13:05:06.013Z,10.30
2017-06-15T13:07:34.321Z,8.84
2017-06-15T13:10:02.707Z,9.58
2017-06-15T13:12:31.037Z,8.26
2017-06-15T13:14:59.466Z,7.56
2017-06-15T13:17:27.801Z,7.64
2017-06-15T13:19:56.136Z,7.52
2017-06-15T13:22:23.722Z,7.72
2017-06-15T13:24:52.031Z,7.10
2017-06-15T13:27:19.571Z,8.00
2017-06-15T13:29:47.901Z,7.78
2017-06-15T13:32:16.209Z,8.60
2017-06-15T13:34:44.547Z,7.72
2017-06-15T13:37:12.880Z,7.58
2017-06-15T13:39:41.240Z,7.62
2017-06-15T13:42:09.555Z,10.00
2017-06-15T13:44:38.104Z,6.96
2017-06-15T13:47:06.411Z,8.32
2017-06-15T13:49:34.739Z,11.72
2017-06-15T13:52:03.072Z,8.88
2017-06-15T13:54:31.495Z,7.20
2017-06-15T13:56:59.828Z,8.62
2017-06-15T13:59:28.144Z,7.76
2017-06-15T14:01:56.472Z,8.04
2017-06-15T14:04:24.800Z,8.40
2017-06-15T14:06:53.139Z,8.38
2017-06-15T14:09:21.464Z,8.46
2017-06-15T14:11:49.787Z,7.42
2017-06-15T14:14:18.158Z,13.76
2017-06-15T14:16:46.498Z,9.76
2017-06-15T14:19:14.897Z,23.04
2017-06-15T14:21:43.205Z,8.30
2017-06-15T14:24:11.863Z,7.84
2017-06-15T14:26:40.175Z,8.60
2017-06-15T14:29:08.631Z,8.40
2017-06-15T14:31:36.943Z,7.84
2017-06-15T14:34:05.253Z,9.04
2017-06-15T14:36:33.583Z,7.86
2017-06-15T14:39:01.988Z,8.22
2017-06-15T14:41:30.339Z,8.14
2017-06-15T14:43:58.662Z,8.38
2017-06-15T14:46:27.271Z,8.34
2017-06-15T14:48:55.716Z,8.28
2017-06-15T14:51:24.027Z,10.64
2017-06-15T14:53:52.355Z,8.30
2017-06-15T14:56:20.664Z,10.52
2017-06-15T14:58:48.992Z,8.36
2017-06-15T15:01:17.312Z,9.68
2017-06-15T15:03:45.647Z,8.04
2017-06-15T15:06:13.368Z,8.22
2017-06-15T15:08:53.612Z,10.06
2017-06-15T15:11:21.940Z,10.78
2017-06-15T15:13:50.244Z,9.20
2017-06-15T15:16:18.595Z,8.76
2017-06-15T15:18:47.002Z,8.16
2017-06-15T15:21:15.332Z,8.28
2017-06-15T15:23:43.671Z,8.30
2017-06-15T15:26:12.027Z,8.74
2017-06-15T15:28:40.337Z,8.34
2017-06-15T15:31:08.677Z,8.08
2017-06-15T15:33:37.009Z,9.88
2017-06-15T15:36:05.316Z,8.26
2017-06-15T15:38:33.693Z,10.52
2017-06-15T15:41:02.015Z,8.90
2017-06-15T15:43:30.363Z,7.88
2017-06-15T15:45:58.669Z,8.34
2017-06-15T15:48:26.976Z,8.04
2017-06-15T15:50:55.304Z,8.18
2017-06-15T15:53:23.612Z,8.22
2017-06-15T15:55:51.943Z,8.46
2017-06-15T15:58:20.254Z,7.48
2017-06-15T16:00:48.625Z,7.62
2017-06-15T16:03:16.936Z,7.12
2017-06-15T16:05:45.267Z,8.14
2017-06-15T16:08:13.604Z,7.76
2017-06-15T16:10:41.931Z,7.22
2017-06-15T16:13:10.273Z,7.14
2017-06-15T16:15:38.588Z,7.60
2017-06-15T16:18:06.931Z,10.42
2017-06-15T16:20:35.236Z,7.78
2017-06-15T16:23:03.543Z,7.36
2017-06-15T16:25:31.911Z,8.46
2017-06-15T16:28:00.214Z,9.64
2017-06-15T16:30:28.667Z,7.92
2017-06-15T16:32:56.973Z,7.54
2017-06-15T16:35:25.371Z,6.98
2017-06-15T16:37:53.685Z,8.80
2017-06-15T16:40:22.061Z,8.00
2017-06-15T16:42:50.392Z,6.78
2017-06-15T16:45:18.821Z,8.42
2017-06-15T16:47:47.150Z,6.72
2017-06-15T16:50:15.468Z,6.72
2017-06-15T16:52:43.795Z,6.86
2017-06-15T16:55:12.124Z,7.02
2017-06-15T16:57:40.474Z,6.86
2017-06-15T17:00:08.885Z,6.64
2017-06-15T17:02:37.192Z,6.32
2017-06-15T17:05:05.554Z,8.78
2017-06-15T17:07:33.874Z,6.58
2017-06-15T17:10:02.208Z,6.18
2017-06-15T17:12:29.753Z,6.30
2017-06-15T17:14:58.157Z,5.74
2017-06-15T17:17:26.471Z,6.24
2017-06-15T17:19:54.825Z,6.16
2017-06-15T17:22:23.143Z,6.18
2017-06-15T17:24:51.458Z,6.88
2017-06-15T17:27:19.792Z,6.36
2017-06-15T17:29:48.105Z,6.16
2017-06-15T17:32:16.492Z,6.42
2017-06-15T17:34:44.803Z,7.16
2017-06-15T17:37:13.143Z,6.76
2017-06-15T17:39:41.457Z,6.16
2017-06-15T17:42:09.804Z,6.32
2017-06-15T17:44:38.121Z,8.80
2017-06-15T17:47:06.431Z,8.48
2017-06-15T17:49:34.801Z,6.10
2017-06-15T17:52:03.116Z,5.98
2017-06-15T17:54:31.535Z,6.60
2017-06-15T17:56:59.843Z,6.84
2017-06-15T17:59:28.222Z,7.10
2017-06-15T18:01:56.672Z,7.20
2017-06-15T18:04:25.022Z,7.96
2017-06-15T18:06:53.343Z,7.26
2017-06-15T18:09:21.654Z,7.72
2017-06-15T18:11:49.987Z,8.08
2017-06-15T18:14:18.307Z,7.10
2017-06-15T18:16:46.645Z,8.10
2017-06-15T18:19:15.049Z,7.10
2017-06-15T18:21:43.423Z,7.34
2017-06-15T18:24:11.882Z,7.52
2017-06-15T18:26:40.220Z,7.58
2017-06-15T18:29:08.622Z,7.90
2017-06-15T18:31:36.980Z,7.52
2017-06-15T18:34:05.376Z,9.06
2017-06-15T18:36:33.744Z,7.40
2017-06-15T18:39:02.085Z,7.88
2017-06-15T18:41:30.401Z,11.64
2017-06-15T18:43:58.822Z,7.40
2017-06-15T18:46:27.132Z,9.64
2017-06-15T18:48:55.590Z,7.90
2017-06-15T18:51:23.930Z,7.70
2017-06-15T18:53:52.283Z,8.40
2017-06-15T18:56:20.621Z,9.44
2017-06-15T18:58:49.155Z,9.22
2017-06-15T19:01:17.517Z,10.10
2017-06-15T19:03:45.886Z,10.62
2017-06-15T19:06:14.240Z,9.06
2017-06-15T19:08:42.605Z,8.82
2017-06-15T19:11:10.959Z,9.78
2017-06-15T19:13:39.280Z,14.42
2017-06-15T19:16:07.710Z,7.72
2017-06-15T19:18:36.045Z,9.32
2017-06-15T19:21:04.472Z,9.64
2017-06-15T19:23:32.919Z,8.02
2017-06-15T19:26:01.284Z,8.46
2017-06-15T19:28:29.620Z,10.12
2017-06-15T19:30:57.932Z,8.46
2017-06-15T19:33:26.313Z,11.78
2017-06-15T19:35:54.691Z,10.04
2017-06-15T19:38:23.003Z,7.44
2017-06-15T19:40:51.336Z,7.80
2017-06-15T19:43:19.644Z,7.20
2017-06-15T19:45:47.980Z,6.78
2017-06-15T19:48:16.357Z,6.90
2017-06-15T19:50:44.705Z,8.76
2017-06-15T19:53:13.017Z,7.68
2017-06-15T19:55:41.409Z,6.10
2017-06-15T19:58:09.725Z,6.16
2017-06-15T20:00:38.111Z,7.88
2017-06-15T20:03:06.640Z,7.54
2017-06-15T20:05:34.963Z,6.22
2017-06-15T20:08:03.109Z,6.02
2017-06-15T20:10:31.429Z,5.50
2017-06-15T20:12:59.444Z,7.40
2017-06-15T20:15:27.954Z,6.14
2017-06-15T20:18:01.694Z,15.44
2017-06-15T20:20:30.129Z,9.36
2017-06-15T20:22:58.503Z,5.42
2017-06-15T20:25:32.576Z,5.86
2017-06-15T20:28:01.878Z,5.16
2017-06-15T20:30:30.201Z,5.22
2017-06-15T20:32:59.951Z,5.48
2017-06-15T20:35:28.285Z,5.48
2017-06-15T20:37:56.982Z,6.26
2017-06-15T20:40:25.375Z,5.18
2017-06-15T20:42:53.683Z,5.58
2017-06-15T20:45:21.998Z,5.60
2017-06-15T20:47:50.327Z,9.20
2017-06-15T20:50:18.635Z,5.82
2017-06-15T20:52:46.971Z,4.28
2017-06-15T20:55:15.280Z,5.84
2017-06-15T20:57:43.612Z,4.28
2017-06-15T21:00:12.676Z,5.02
2017-06-15T21:02:40.284Z,4.50
2017-06-15T21:05:08.595Z,7.12
2017-06-15T21:07:36.905Z,4.46
2017-06-15T21:10:06.730Z,4.96
2017-06-15T21:12:35.177Z,5.74
2017-06-15T21:15:03.511Z,8.58
2017-06-15T21:17:31.848Z,4.46
2017-06-15T21:20:00.181Z,6.32
2017-06-15T21:22:28.505Z,6.12
2017-06-15T21:24:56.852Z,4.82
2017-06-15T21:27:25.532Z,11.84
2017-06-15T21:29:53.955Z,6.80
2017-06-15T21:32:22.336Z,8.98
2017-06-15T21:34:50.651Z,9.62
2017-06-15T21:37:19.005Z,28.54
2017-06-15T21:39:47.324Z,10.48
2017-06-15T21:42:14.892Z,6.10
2017-06-15T21:44:43.247Z,6.86
2017-06-15T21:47:11.592Z,8.62
2017-06-15T21:49:39.937Z,5.96
2017-06-15T21:52:08.256Z,6.66
2017-06-15T21:54:36.772Z,8.06
2017-06-15T21:57:05.091Z,7.16
2017-06-15T21:59:33.426Z,5.16
2017-06-15T22:02:01.091Z,7.52
2017-06-15T22:04:29.449Z,5.00
2017-06-15T22:06:57.779Z,8.04
2017-06-15T22:09:26.271Z,4.72
2017-06-15T22:11:54.633Z,5.70
2017-06-15T22:14:23.056Z,6.22
2017-06-15T22:16:51.438Z,4.46
2017-06-15T22:19:19.748Z,6.24
2017-06-15T22:21:48.094Z,5.10
2017-06-15T22:24:16.404Z,5.24
2017-06-15T22:26:44.745Z,5.08
2017-06-15T22:29:13.064Z,4.34
2017-06-15T22:31:41.472Z,4.46
2017-06-15T22:34:09.792Z,6.44
2017-06-15T22:36:38.365Z,4.92
2017-06-15T22:39:06.248Z,7.42
2017-06-15T22:41:34.560Z,7.24
2017-06-15T22:44:02.896Z,4.44
2017-06-15T22:46:31.216Z,5.34
2017-06-15T22:48:59.544Z,3.88
2017-06-15T22:51:27.885Z,9.10
2017-06-15T22:53:56.219Z,4.54
2017-06-15T22:56:24.552Z,14.30
2017-06-15T22:58:52.127Z,5.66
2017-06-15T23:01:20.460Z,6.50
2017-06-15T23:03:48.767Z,9.32
2017-06-15T23:06:17.109Z,6.14
2017-06-15T23:08:45.466Z,7.48
2017-06-15T23:11:13.803Z,6.58
2017-06-15T23:13:42.108Z,4.78
2017-06-15T23:16:10.457Z,6.68
2017-06-15T23:18:38.816Z,5.44
2017-06-15T23:21:07.161Z,5.16
2017-06-15T23:23:35.499Z,4.82
2017-06-15T23:26:03.043Z,6.02
2017-06-15T23:28:31.390Z,7.90
2017-06-15T23:30:59.696Z,5.24
2017-06-15T23:33:28.156Z,4.62
2017-06-15T23:35:56.469Z,5.54
2017-06-15T23:38:24.867Z,8.56
2017-06-15T23:40:53.243Z,4.66
2017-06-15T23:43:21.572Z,7.38
2017-06-15T23:45:49.904Z,5.84
2017-06-15T23:48:18.268Z,4.12
2017-06-15T23:50:47.540Z,3.98
2017-06-15T23:53:17.003Z,5.74
2017-06-15T23:55:45.335Z,4.84
2017-06-15T23:58:13.027Z,3.72
